createdAt,value
2022-08-07T01:49:40.836Z,0
2022-08-07T01:53:07.639Z,0
2022-08-07T01:56:34.414Z,0
2022-08-07T02:00:01.207Z,1
2022-08-07T02:03:28.309Z,1
2022-08-07T02:05:11.703Z,1
2022-08-07T02:10:21.901Z,1
2022-08-07T02:12:05.322Z,1
2022-08-07T02:13:48.693Z,1
2022-08-07T02:15:32.095Z,1
2022-08-07T02:17:15.690Z,2
2022-08-07T02:22:44.873Z,1
2022-08-07T02:25:13.166Z,1
2022-08-07T02:39:27.750Z,0
2022-08-07T02:44:24.336Z,2
2022-08-07T02:48:20.348Z,1
2022-08-07T02:51:48.136Z,1
2022-08-07T02:58:13.560Z,0
2022-08-07T03:00:26.805Z,1
2022-08-07T03:06:22.866Z,1
2022-08-07T03:07:51.668Z,0
2022-08-07T03:16:44.271Z,1
2022-08-07T03:21:40.888Z,0
2022-08-07T03:28:13.184Z,0
2022-08-07T03:35:30.066Z,2
2022-08-07T03:51:47.567Z,2
2022-08-07T05:56:43.094Z,283
2022-08-07T06:05:21.719Z,252
2022-08-07T06:08:49.505Z,292
2022-08-07T06:12:46.641Z,287
2022-08-07T06:25:07.005Z,368
2022-08-07T06:37:56.750Z,589
2022-08-07T06:40:25.013Z,536
2022-08-07T06:41:37.650Z,605
2022-08-07T06:43:21.044Z,602
2022-08-07T06:46:47.522Z,597
2022-08-07T06:48:30.953Z,556
2022-08-07T06:50:14.320Z,578
2022-08-07T06:51:57.719Z,683
2022-08-07T06:53:41.111Z,664
2022-08-07T06:55:24.513Z,526
2022-08-07T06:57:07.893Z,569
2022-08-07T06:58:51.287Z,569
2022-08-07T07:00:34.728Z,583
2022-08-07T07:04:01.184Z,574
2022-08-07T07:05:44.553Z,569
2022-08-07T07:07:27.971Z,577
2022-08-07T07:09:11.375Z,562
2022-08-07T07:10:54.769Z,560
2022-08-07T07:12:38.170Z,594
2022-08-07T07:14:21.555Z,528
2022-08-07T07:16:04.975Z,543
2022-08-07T07:17:48.335Z,594
2022-08-07T07:21:14.807Z,576
2022-08-07T07:22:58.207Z,559
2022-08-07T07:24:41.621Z,557
2022-08-07T07:26:25.000Z,589
2022-08-07T07:28:08.413Z,611
2022-08-07T07:29:51.789Z,610
2022-08-07T07:31:35.210Z,635
2022-08-07T07:33:18.581Z,640
2022-08-07T07:35:02.012Z,643
2022-08-07T07:36:45.706Z,657
2022-08-07T07:38:29.099Z,671
2022-08-07T07:40:12.484Z,626
2022-08-07T07:41:55.877Z,588
2022-08-07T07:43:39.287Z,652
2022-08-07T07:45:22.678Z,697
2022-08-07T07:47:06.077Z,704
2022-08-07T07:48:49.477Z,705
2022-08-07T07:50:32.861Z,682
2022-08-07T07:52:16.564Z,633
2022-08-07T07:53:59.986Z,704
2022-08-07T07:55:43.376Z,753
2022-08-07T07:57:26.767Z,711
2022-08-07T07:59:10.156Z,724
2022-08-07T08:00:53.590Z,732
2022-08-07T08:02:36.962Z,723
2022-08-07T08:04:20.339Z,653
2022-08-07T08:09:29.589Z,741
2022-08-07T08:11:13.005Z,725
2022-08-07T08:12:56.397Z,717
2022-08-07T08:14:39.819Z,715
2022-08-07T08:16:23.172Z,620
2022-08-07T08:18:06.615Z,639
2022-08-07T08:19:49.977Z,688
2022-08-07T08:21:33.365Z,659
2022-08-07T08:23:16.775Z,649
2022-08-07T08:26:43.284Z,661
2022-08-07T08:28:26.634Z,781
2022-08-07T08:30:10.024Z,781
2022-08-07T08:31:53.428Z,775
2022-08-07T08:33:36.861Z,741
2022-08-07T08:35:20.217Z,676
2022-08-07T08:37:03.655Z,696
2022-08-07T08:38:47.001Z,724
2022-08-07T08:40:30.399Z,750
2022-08-07T08:43:56.885Z,759
2022-08-07T08:45:40.313Z,759
2022-08-07T08:47:23.687Z,769
2022-08-07T08:49:07.066Z,700
2022-08-07T08:50:50.470Z,735
2022-08-07T08:52:33.877Z,724
2022-08-07T08:54:17.254Z,720
2022-08-07T08:56:00.676Z,708
2022-08-07T08:57:44.071Z,753
2022-08-07T09:01:10.525Z,781
2022-08-07T09:02:53.919Z,781
2022-08-07T09:04:37.342Z,781
2022-08-07T09:06:20.714Z,757
2022-08-07T09:08:04.114Z,745
2022-08-07T09:09:47.534Z,773
2022-08-07T09:11:30.909Z,782
2022-08-07T09:13:14.328Z,726
2022-08-07T09:14:57.698Z,780
2022-08-07T09:18:24.194Z,781
2022-08-07T09:20:07.576Z,782
2022-08-07T09:21:50.961Z,781
2022-08-07T09:23:34.352Z,782
2022-08-07T09:25:17.753Z,781
2022-08-07T09:27:01.152Z,781
2022-08-07T09:28:44.538Z,781
2022-08-07T09:30:27.947Z,782
2022-08-07T09:35:37.181Z,781
2022-08-07T09:37:20.591Z,781
2022-08-07T09:39:03.978Z,782
2022-08-07T09:40:47.390Z,781
2022-08-07T09:42:30.780Z,781
2022-08-07T09:44:14.172Z,781
2022-08-07T09:45:57.569Z,781
2022-08-07T09:47:40.971Z,781
2022-08-07T09:52:50.198Z,781
2022-08-07T09:54:33.597Z,781
2022-08-07T09:56:17.005Z,781
2022-08-07T09:58:00.444Z,781
2022-08-07T09:59:43.816Z,781
2022-08-07T10:01:27.190Z,781
2022-08-07T10:03:10.589Z,680
2022-08-07T10:04:53.983Z,781
2022-08-07T10:10:03.228Z,781
2022-08-07T10:11:46.620Z,780
2022-08-07T10:13:30.006Z,781
2022-08-07T10:15:13.380Z,781
2022-08-07T10:16:56.788Z,782
2022-08-07T10:18:40.180Z,781
2022-08-07T10:20:23.595Z,781
2022-08-07T10:22:06.975Z,781
2022-08-07T10:27:16.216Z,781
2022-08-07T10:28:59.624Z,782
2022-08-07T10:30:43.005Z,781
2022-08-07T10:32:26.404Z,781
2022-08-07T10:34:10.045Z,781
2022-08-07T10:35:53.205Z,781
2022-08-07T10:37:36.607Z,781
2022-08-07T10:39:20.002Z,782
2022-08-07T10:44:29.236Z,782
2022-08-07T10:46:12.629Z,782
2022-08-07T10:47:56.043Z,781
2022-08-07T10:49:39.440Z,781
2022-08-07T10:51:22.843Z,782
2022-08-07T10:53:06.220Z,782
2022-08-07T10:54:49.607Z,781
2022-08-07T10:56:33.013Z,782
2022-08-07T11:01:42.260Z,782
2022-08-07T11:03:25.647Z,782
2022-08-07T11:05:09.066Z,781
2022-08-07T11:06:52.451Z,782
2022-08-07T11:08:35.839Z,782
2022-08-07T11:10:19.245Z,782
2022-08-07T11:12:02.639Z,782
2022-08-07T11:13:46.039Z,782
2022-08-07T11:17:12.507Z,781
2022-08-07T11:18:55.915Z,782
2022-08-07T11:20:39.299Z,782
2022-08-07T11:22:22.702Z,783
2022-08-07T11:24:06.109Z,782
2022-08-07T11:25:49.488Z,782
2022-08-07T11:27:32.892Z,782
2022-08-07T11:29:16.296Z,782
2022-08-07T11:30:59.699Z,781
2022-08-07T11:34:26.154Z,782
2022-08-07T11:36:09.539Z,782
2022-08-07T11:37:52.959Z,782
2022-08-07T11:39:36.337Z,782
2022-08-07T11:41:19.741Z,782
2022-08-07T11:43:03.154Z,782
2022-08-07T11:44:46.524Z,782
2022-08-07T11:46:29.942Z,782
2022-08-07T11:51:39.167Z,782
2022-08-07T11:53:22.568Z,782
2022-08-07T11:55:05.969Z,782
2022-08-07T11:56:49.364Z,782
2022-08-07T11:58:32.767Z,782
2022-08-07T12:00:16.163Z,782
2022-08-07T12:01:59.551Z,782
2022-08-07T12:03:42.944Z,781
2022-08-07T12:07:09.452Z,782
2022-08-07T12:08:52.835Z,782
2022-08-07T12:10:36.216Z,782
2022-08-07T12:12:19.643Z,782
2022-08-07T12:14:03.023Z,781
2022-08-07T12:15:46.414Z,782
2022-08-07T12:17:29.815Z,781
2022-08-07T12:19:13.207Z,782
2022-08-07T12:24:22.440Z,782
2022-08-07T12:26:05.833Z,782
2022-08-07T12:27:49.233Z,782
2022-08-07T12:29:32.627Z,782
2022-08-07T12:31:16.030Z,781
2022-08-07T12:32:59.423Z,782
2022-08-07T12:34:42.881Z,782
2022-08-07T12:36:26.229Z,775
2022-08-07T12:38:09.926Z,782
2022-08-07T12:39:53.319Z,782
2022-08-07T12:41:36.712Z,781
2022-08-07T12:43:20.248Z,782
2022-08-07T12:45:03.511Z,782
2022-08-07T12:46:46.900Z,782
2022-08-07T12:48:30.290Z,781
2022-08-07T12:50:13.706Z,782
2022-08-07T12:53:40.179Z,781
2022-08-07T12:55:23.575Z,782
2022-08-07T12:57:06.990Z,782
2022-08-07T12:58:50.363Z,782
2022-08-07T13:00:33.758Z,782
2022-08-07T13:02:17.162Z,782
2022-08-07T13:04:00.546Z,782
2022-08-07T13:05:43.951Z,782
2022-08-07T13:10:53.188Z,782
2022-08-07T13:12:36.589Z,782
2022-08-07T13:14:19.993Z,782
2022-08-07T13:16:03.390Z,781
2022-08-07T13:17:46.822Z,782
2022-08-07T13:19:30.182Z,782
2022-08-07T13:21:13.569Z,782
2022-08-07T13:22:56.980Z,783
2022-08-07T13:26:23.447Z,782
2022-08-07T13:28:06.835Z,782
2022-08-07T13:29:50.245Z,782
2022-08-07T13:31:33.645Z,782
2022-08-07T13:33:17.032Z,783
2022-08-07T13:35:00.440Z,782
2022-08-07T13:36:43.839Z,782
2022-08-07T13:38:27.223Z,782
2022-08-07T13:41:53.711Z,782
2022-08-07T13:43:37.097Z,782
2022-08-07T13:45:20.475Z,782
2022-08-07T13:47:03.888Z,782
2022-08-07T13:48:47.286Z,782
2022-08-07T13:50:30.670Z,782
2022-08-07T13:52:14.064Z,692
2022-08-07T13:53:57.490Z,782
2022-08-07T13:57:23.964Z,782
2022-08-07T13:59:07.364Z,781
2022-08-07T14:00:50.739Z,782
2022-08-07T14:02:34.134Z,782
2022-08-07T14:04:17.532Z,782
2022-08-07T14:06:00.933Z,782
2022-08-07T14:07:44.331Z,782
2022-08-07T14:09:27.732Z,781
2022-08-07T14:11:11.424Z,782
2022-08-07T14:12:54.827Z,782
2022-08-07T14:14:38.214Z,782
2022-08-07T14:16:21.630Z,782
2022-08-07T14:18:05.013Z,782
2022-08-07T14:19:48.423Z,782
2022-08-07T14:21:31.819Z,782
2022-08-07T14:23:15.212Z,782
2022-08-07T14:26:41.716Z,782
2022-08-07T14:28:25.095Z,782
2022-08-07T14:30:08.486Z,783
2022-08-07T14:31:51.885Z,782
2022-08-07T14:33:35.268Z,783
2022-08-07T14:35:18.662Z,782
2022-08-07T14:37:02.077Z,782
2022-08-07T14:38:45.449Z,782
2022-08-07T14:42:11.926Z,782
2022-08-07T14:43:55.363Z,782
2022-08-07T14:45:38.742Z,782
2022-08-07T14:47:22.112Z,782
2022-08-07T14:49:05.511Z,782
2022-08-07T14:50:48.967Z,782
2022-08-07T14:52:32.324Z,782
2022-08-07T14:54:15.718Z,782
2022-08-07T14:59:24.953Z,782
2022-08-07T15:01:08.353Z,782
2022-08-07T15:02:51.758Z,783
2022-08-07T15:04:35.156Z,783
2022-08-07T15:06:18.540Z,782
2022-08-07T15:08:01.945Z,783
2022-08-07T15:09:45.361Z,783
2022-08-07T15:11:28.734Z,782
2022-08-07T15:14:55.210Z,783
2022-08-07T15:16:38.601Z,782
2022-08-07T15:18:21.986Z,782
2022-08-07T15:20:05.405Z,782
2022-08-07T15:21:48.816Z,724
2022-08-07T15:23:32.191Z,435
2022-08-07T15:25:15.584Z,527
2022-08-07T15:26:59.009Z,782
2022-08-07T15:30:25.473Z,564
2022-08-07T15:32:08.877Z,370
2022-08-07T15:33:52.244Z,666
2022-08-07T15:35:35.647Z,782
2022-08-07T15:37:19.072Z,782
2022-08-07T15:39:02.449Z,782
2022-08-07T15:40:45.850Z,783
2022-08-07T15:42:29.227Z,782
2022-08-07T15:45:55.702Z,782
2022-08-07T15:47:39.103Z,563
2022-08-07T15:49:22.539Z,782
2022-08-07T15:51:05.891Z,782
2022-08-07T15:52:49.330Z,782
2022-08-07T15:54:32.685Z,782
2022-08-07T15:56:16.111Z,782
2022-08-07T15:57:59.492Z,782
2022-08-07T16:01:25.981Z,783
2022-08-07T16:03:09.368Z,782
2022-08-07T16:04:52.807Z,782
2022-08-07T16:06:36.201Z,782
2022-08-07T16:08:19.571Z,783
2022-08-07T16:10:02.950Z,782
2022-08-07T16:11:46.371Z,783
2022-08-07T16:13:29.740Z,783
2022-08-07T16:18:38.988Z,783
2022-08-07T16:20:22.406Z,783
2022-08-07T16:22:05.786Z,783
2022-08-07T16:23:49.184Z,783
2022-08-07T16:25:32.610Z,783
2022-08-07T16:27:15.984Z,389
2022-08-07T16:28:59.376Z,782
2022-08-07T16:30:42.787Z,784
2022-08-07T16:34:09.277Z,783
2022-08-07T16:35:52.646Z,782
2022-08-07T16:37:36.040Z,783
2022-08-07T16:39:19.449Z,783
2022-08-07T16:41:02.833Z,688
2022-08-07T16:42:46.213Z,783
2022-08-07T16:44:29.636Z,783
2022-08-07T16:46:13.010Z,768
2022-08-07T16:47:56.725Z,783
2022-08-07T16:49:40.130Z,783
2022-08-07T16:51:23.527Z,783
2022-08-07T16:53:06.915Z,783
2022-08-07T16:54:50.301Z,783
2022-08-07T16:56:33.711Z,784
2022-08-07T16:58:17.095Z,782
2022-08-07T17:00:00.507Z,773
2022-08-07T17:01:44.209Z,783
2022-08-07T17:03:27.601Z,783
2022-08-07T17:05:11.003Z,783
2022-08-07T17:06:54.396Z,783
2022-08-07T17:08:37.786Z,586
2022-08-07T17:10:21.183Z,606
2022-08-07T17:12:04.588Z,782
2022-08-07T17:13:47.992Z,771
2022-08-07T17:15:31.686Z,777
2022-08-07T17:17:15.073Z,783
2022-08-07T17:18:58.478Z,783
2022-08-07T17:20:41.879Z,783
2022-08-07T17:22:25.272Z,783
2022-08-07T17:24:08.663Z,783
2022-08-07T17:25:52.054Z,783
2022-08-07T17:27:35.461Z,783
2022-08-07T17:31:01.945Z,783
2022-08-07T17:32:45.350Z,783
2022-08-07T17:34:28.719Z,783
2022-08-07T17:36:12.109Z,783
2022-08-07T17:37:55.508Z,782
2022-08-07T17:39:38.902Z,783
2022-08-07T17:41:22.302Z,783
2022-08-07T17:43:05.709Z,783
2022-08-07T17:46:32.173Z,782
2022-08-07T17:48:15.575Z,709
2022-08-07T17:49:58.982Z,521
2022-08-07T17:51:42.358Z,407
2022-08-07T17:53:25.785Z,383
2022-08-07T17:55:09.183Z,374
2022-08-07T17:56:52.577Z,347
2022-08-07T17:58:35.963Z,334
2022-08-07T18:02:02.431Z,299
2022-08-07T18:03:45.851Z,299
2022-08-07T18:05:29.243Z,299
2022-08-07T18:07:12.629Z,273
2022-08-07T18:08:56.017Z,244
2022-08-07T18:10:39.410Z,224
2022-08-07T18:12:22.801Z,224
2022-08-07T18:17:32.054Z,197
2022-08-07T18:19:15.450Z,189
2022-08-07T18:20:58.861Z,183
2022-08-07T18:22:42.242Z,175
2022-08-07T18:24:25.653Z,167
2022-08-07T18:26:09.033Z,161
2022-08-07T18:27:52.442Z,151
2022-08-07T18:29:35.828Z,135
2022-08-07T18:33:02.319Z,108
2022-08-07T18:34:45.711Z,104
2022-08-07T18:36:29.094Z,95
2022-08-07T18:38:12.515Z,87
2022-08-07T18:39:55.897Z,79
2022-08-07T18:41:39.304Z,74
2022-08-07T18:43:22.685Z,65
2022-08-07T18:45:06.096Z,60
2022-08-07T18:48:32.551Z,46
2022-08-07T18:50:15.962Z,41
2022-08-07T18:51:59.345Z,35
2022-08-07T18:53:42.738Z,29
2022-08-07T18:55:26.146Z,24
2022-08-07T18:57:09.541Z,20
2022-08-07T18:58:52.933Z,15
2022-08-07T19:00:36.343Z,12
2022-08-07T19:05:45.592Z,7
2022-08-07T19:07:28.980Z,6
2022-08-07T19:09:12.392Z,4
2022-08-07T19:10:55.775Z,3
2022-08-07T19:12:39.168Z,2
2022-08-07T19:14:22.572Z,2
2022-08-07T19:16:05.969Z,2
2022-08-07T19:17:49.361Z,2
2022-08-07T19:22:58.596Z,10
2022-08-07T19:24:42.012Z,227
2022-08-07T19:26:25.413Z,223
2022-08-07T19:28:08.794Z,224
2022-08-07T19:29:52.198Z,214
2022-08-07T19:31:35.584Z,223
2022-08-07T19:33:19.039Z,196
2022-08-07T19:35:02.383Z,220
2022-08-07T19:36:45.794Z,224
2022-08-07T19:40:12.257Z,9
2022-08-07T19:41:55.648Z,9
2022-08-07T19:43:39.046Z,8
2022-08-07T19:45:22.439Z,9
2022-08-07T19:47:05.849Z,9
2022-08-07T19:48:49.241Z,9
2022-08-07T19:50:32.632Z,9
2022-08-07T19:52:16.035Z,9
2022-08-07T19:57:25.268Z,9
2022-08-07T19:59:08.658Z,8
2022-08-07T20:00:52.054Z,9
2022-08-07T20:02:35.467Z,8
2022-08-07T20:04:18.854Z,9
2022-08-07T20:06:02.262Z,9
2022-08-07T20:07:45.646Z,9
2022-08-07T20:09:29.028Z,9
2022-08-07T20:14:38.295Z,9
2022-08-07T20:16:21.670Z,9
2022-08-07T20:18:05.102Z,8
2022-08-07T20:19:48.475Z,10
2022-08-07T20:21:31.862Z,9
2022-08-07T20:23:15.257Z,10
2022-08-07T20:24:58.656Z,8
2022-08-07T20:26:42.058Z,8
2022-08-07T20:31:51.296Z,9
2022-08-07T20:33:34.715Z,8
2022-08-07T20:35:18.099Z,8
2022-08-07T20:37:01.511Z,9
2022-08-07T20:38:44.893Z,9
2022-08-07T20:40:28.286Z,9
2022-08-07T20:42:11.691Z,9
2022-08-07T20:43:55.081Z,8
2022-08-07T20:45:38.474Z,9
2022-08-07T20:47:22.171Z,8
2022-08-07T20:49:05.593Z,9
2022-08-07T20:50:48.968Z,9
2022-08-07T20:52:32.369Z,9
2022-08-07T20:54:15.775Z,9
2022-08-07T20:55:59.162Z,9
2022-08-07T20:57:42.552Z,8
2022-08-07T20:59:25.967Z,8
2022-08-07T21:01:09.352Z,9
2022-08-07T21:04:35.828Z,9
2022-08-07T21:06:19.220Z,9
2022-08-07T21:08:02.618Z,9
2022-08-07T21:09:46.005Z,9
2022-08-07T21:11:29.411Z,9
2022-08-07T21:13:12.833Z,10
2022-08-07T21:14:56.189Z,9
2022-08-07T21:16:39.613Z,8
2022-08-07T21:18:22.998Z,9
2022-08-07T21:20:06.698Z,9
2022-08-07T21:21:50.113Z,9
2022-08-07T21:23:33.503Z,9
2022-08-07T21:25:16.900Z,9
2022-08-07T21:27:00.295Z,9
2022-08-07T21:28:43.676Z,9
2022-08-07T21:30:27.080Z,9
2022-08-07T21:32:10.468Z,8
2022-08-07T21:33:53.862Z,9
2022-08-07T21:35:37.569Z,8
2022-08-07T21:37:20.988Z,8
2022-08-07T21:39:04.382Z,10
2022-08-07T21:40:47.759Z,9
2022-08-07T21:42:31.160Z,10
2022-08-07T21:44:14.568Z,9
2022-08-07T21:45:57.956Z,9
2022-08-07T21:47:41.353Z,9
2022-08-07T21:49:24.755Z,10
2022-08-07T21:51:08.454Z,9
2022-08-07T21:52:51.849Z,9
2022-08-07T21:54:35.243Z,9
2022-08-07T21:56:18.634Z,9
2022-08-07T21:58:02.028Z,9
2022-08-07T21:59:45.450Z,10
2022-08-07T22:01:28.834Z,9
2022-08-07T22:03:12.241Z,9
2022-08-07T22:04:55.627Z,9
2022-08-07T22:08:22.088Z,9
2022-08-07T22:10:05.494Z,9
2022-08-07T22:11:48.899Z,9
2022-08-07T22:13:32.305Z,8
2022-08-07T22:15:15.693Z,9
2022-08-07T22:16:59.089Z,9
2022-08-07T22:18:42.471Z,9
2022-08-07T22:20:25.876Z,9
2022-08-07T22:22:09.273Z,9
2022-08-07T22:25:35.757Z,9
2022-08-07T22:27:19.146Z,9
2022-08-07T22:29:02.527Z,9
2022-08-07T22:30:45.935Z,9
2022-08-07T22:32:29.323Z,9
2022-08-07T22:34:12.729Z,8
2022-08-07T22:35:56.161Z,9
2022-08-07T22:37:39.554Z,9
2022-08-07T22:39:22.903Z,9
2022-08-07T22:41:06.623Z,9
2022-08-07T22:42:50.077Z,8
2022-08-07T22:44:33.427Z,10
2022-08-07T22:46:16.807Z,8
2022-08-07T22:48:00.246Z,8
2022-08-07T22:49:43.613Z,8
2022-08-07T22:51:26.999Z,8
2022-08-07T22:53:10.447Z,1
2022-08-07T22:54:53.797Z,2
2022-08-07T22:58:20.271Z,0
2022-08-07T23:00:03.695Z,0
2022-08-07T23:01:47.062Z,1
2022-08-07T23:03:30.476Z,1
2022-08-07T23:05:13.850Z,1
2022-08-07T23:06:57.278Z,1
2022-08-07T23:08:40.673Z,1
2022-08-07T23:10:24.046Z,0
2022-08-07T23:12:07.434Z,1
2022-08-07T23:13:51.159Z,0
2022-08-07T23:15:34.587Z,1
2022-08-07T23:17:17.940Z,0
2022-08-07T23:19:01.349Z,1
2022-08-07T23:20:44.734Z,0
2022-08-07T23:22:28.122Z,0
2022-08-07T23:24:11.544Z,1
2022-08-07T23:25:54.923Z,0
2022-08-07T23:27:38.325Z,1
2022-08-07T23:31:04.803Z,1
2022-08-07T23:32:48.204Z,1
2022-08-07T23:34:31.599Z,1
2022-08-07T23:36:14.996Z,1
2022-08-07T23:37:58.398Z,1
2022-08-07T23:39:41.784Z,1
2022-08-07T23:41:25.193Z,1
2022-08-07T23:43:08.570Z,1
2022-08-07T23:44:51.983Z,0
2022-08-07T23:50:01.229Z,1
2022-08-07T23:51:44.619Z,1
2022-08-07T23:53:28.007Z,0
2022-08-07T23:55:11.407Z,0
2022-08-07T23:56:54.805Z,2
2022-08-07T23:58:38.199Z,1
